Time;durP1;ratioP1;P1;durP2;ratioP2;P2;SDS_P1;SDS_P2;PMS_P1;PMS_P2;Temp;Humidity;BMP_temperature;BMP_pressure;BME280_temperature;BME280_humidity;BME280_pressure;Samples;Min_cycle;Max_cycle;Signal;HPM_P1;HPM_P2
2023/07/06 00:01:00;;;;;;;;;5.00;5.00;;;;;20.21;56.21;101008.78;5058845;28;45618;-81
2023/07/06 00:03:26;;;;;;;;;4.75;3.75;;;;;20.16;56.56;101014.59;5060022;28;45683;-83
2023/07/06 00:05:51;;;;;;;;;7.00;5.00;;;;;20.16;56.70;101011.09;5074518;28;45882;-83
2023/07/06 00:08:17;;;;;;;;;5.75;5.00;;;;;20.09;56.74;101009.09;5057097;28;45630;-82
2023/07/06 00:10:44;;;;;;;;;6.00;5.00;;;;;20.06;56.68;101012.09;5055952;28;45624;-82
2023/07/06 00:13:11;;;;;;;;;4.00;4.00;;;;;19.99;57.07;101012.88;5055680;28;45785;-80
2023/07/06 00:15:37;;;;;;;;;5.75;4.50;;;;;19.95;56.67;101017.69;5056530;28;45560;-81
2023/07/06 00:21:26;;;;;;;;;5.75;5.25;;;;;19.84;57.15;101015.31;5054881;28;45681;-81
2023/07/06 00:23:52;;;;;;;;;5.75;5.75;;;;;19.80;57.09;101016.63;5055048;28;45564;-83
2023/07/06 00:26:20;;;;;;;;;6.00;6.00;;;;;19.75;56.90;101015.44;5053993;28;45657;-82
2023/07/06 00:28:48;;;;;;;;;6.00;5.25;;;;;19.76;57.00;101020.56;5055044;28;45645;-84
2023/07/06 00:31:21;;;;;;;;;5.00;5.00;;;;;19.73;57.55;101022.72;5054934;28;46352;-82
2023/07/06 00:33:48;;;;;;;;;5.75;5.75;;;;;19.70;57.19;101023.88;5055581;28;45695;-80
2023/07/06 00:36:14;;;;;;;;;4.00;4.00;;;;;19.66;57.22;101019.84;5055813;28;45739;-81
2023/07/06 00:38:40;;;;;;;;;5.50;5.50;;;;;19.63;57.37;101025.50;5056215;28;45704;-80
2023/07/06 00:41:05;;;;;;;;;4.00;3.00;;;;;19.60;57.52;101028.44;5057589;28;45674;-80
2023/07/06 00:43:52;;;;;;;;;4.50;3.50;;;;;19.55;57.51;101025.44;5058244;28;45505;-82
2023/07/06 00:46:19;;;;;;;;;6.00;5.00;;;;;19.53;57.50;101024.78;5057551;28;45510;-79
2023/07/06 00:52:07;;;;;;;;;6.00;4.75;;;;;19.49;57.05;101026.88;5054837;28;45771;-81
2023/07/06 00:54:35;;;;;;;;;6.25;5.00;;;;;19.47;57.22;101030.72;5054819;28;45507;-80
2023/07/06 00:57:02;;;;;;;;;5.25;4.25;;;;;19.42;57.25;101032.97;5054907;28;45609;-81
2023/07/06 00:59:30;;;;;;;;;4.25;4.00;;;;;19.41;57.19;101040.09;5054455;28;45632;-82
2023/07/06 01:02:00;;;;;;;;;7.25;5.00;;;;;19.36;57.42;101036.25;5054544;28;45976;-83
2023/07/06 01:04:29;;;;;;;;;6.00;5.00;;;;;19.32;57.71;101033.06;5054344;28;45727;-80
2023/07/06 01:06:55;;;;;;;;;5.00;5.00;;;;;19.28;57.74;101037.00;5054473;28;45785;-80
2023/07/06 01:09:21;;;;;;;;;6.00;5.00;;;;;19.25;58.00;101040.81;5054158;28;45569;-80
2023/07/06 01:11:47;;;;;;;;;4.00;4.00;;;;;19.20;57.62;101026.34;5054106;28;45555;-83
2023/07/06 01:14:14;;;;;;;;;5.00;5.00;;;;;19.19;57.47;101035.28;5054523;28;45649;-80
2023/07/06 01:23:44;;;;;;;;;5.75;5.00;;;;;19.10;57.68;101036.22;5054094;28;45766;-82
2023/07/06 01:26:13;;;;;;;;;5.50;4.00;;;;;19.08;57.46;101032.88;5054625;28;45760;-80
2023/07/06 01:29:29;;;;;;;;;8.25;4.50;;;;;19.05;57.58;101033.19;5054905;28;45623;-82
2023/07/06 01:35:31;;;;;;;;;5.00;5.00;;;;;18.97;57.83;101033.94;5054899;28;45829;-88
2023/07/06 01:37:57;;;;;;;;;4.00;4.00;;;;;18.95;58.14;101027.94;5053643;28;45809;-82
2023/07/06 01:40:23;;;;;;;;;4.00;4.00;;;;;18.93;58.33;101031.75;5053446;28;45670;-81
2023/07/06 01:42:48;;;;;;;;;5.00;5.00;;;;;18.90;58.11;101027.56;5055226;28;46617;-80
2023/07/06 01:45:18;;;;;;;;;5.00;4.00;;;;;18.85;57.92;101024.53;5071567;28;47837;-80
2023/07/06 01:51:19;;;;;;;;;4.00;4.00;;;;;18.88;58.36;101012.78;5055930;28;45667;-80
2023/07/06 01:54:00;;;;;;;;;4.50;4.25;;;;;18.84;58.32;101020.19;5052730;28;46194;-81
2023/07/06 01:56:34;;;;;;;;;4.75;4.75;;;;;18.83;58.45;101015.91;5054012;28;46086;-79
2023/07/06 01:59:07;;;;;;;;;3.25;3.25;;;;;18.77;58.38;101014.69;5054141;28;45721;-79
2023/07/06 02:01:41;;;;;;;;;6.00;5.75;;;;;18.79;58.33;101022.47;5054594;28;46035;-81
2023/07/06 02:07:29;;;;;;;;;9.50;6.00;;;;;18.73;58.65;101017.81;5054723;28;45851;-81
2023/07/06 02:09:54;;;;;;;;;7.25;6.75;;;;;18.69;58.51;101019.91;5055417;28;45750;-80
2023/07/06 02:12:21;;;;;;;;;5.75;5.25;;;;;18.69;58.51;101022.56;5054663;28;45713;-80
2023/07/06 02:14:48;;;;;;;;;6.25;6.00;;;;;18.68;58.23;101010.25;5054824;28;45668;-81
2023/07/06 02:17:15;;;;;;;;;8.00;7.50;;;;;18.68;58.59;101004.13;5054345;28;45570;-81
2023/07/06 02:23:02;;;;;;;;;8.50;7.25;;;;;18.66;58.77;101004.28;5054391;28;45725;-80
2023/07/06 02:25:27;;;;;;;;;6.25;6.00;;;;;18.66;58.16;101011.41;5053993;28;46417;-84
2023/07/06 02:27:52;;;;;;;;;8.50;7.00;;;;;18.65;58.34;100993.81;5052770;28;47415;-80
2023/07/06 02:30:18;;;;;;;;;2.75;2.75;;;;;18.63;58.68;100999.28;5055243;28;46062;-86
2023/07/06 02:32:43;;;;;;;;;7.00;6.75;;;;;18.64;58.50;101010.72;5054576;28;45847;-80
2023/07/06 02:35:11;;;;;;;;;5.25;5.00;;;;;18.62;58.23;100994.13;5053959;28;46149;-80
2023/07/06 02:37:41;;;;;;;;;5.50;4.75;;;;;18.63;58.74;101001.94;5057198;28;45822;-80
2023/07/06 02:40:11;;;;;;;;;4.25;4.00;;;;;18.61;58.43;101011.88;5057426;28;45586;-82
2023/07/06 02:42:42;;;;;;;;;5.00;5.00;;;;;18.61;58.41;101016.34;5058081;28;45602;-80
2023/07/06 02:45:09;;;;;;;;;7.00;6.00;;;;;18.57;58.63;101012.34;5057694;28;46382;-79
2023/07/06 02:47:36;;;;;;;;;7.00;6.00;;;;;18.58;59.07;101013.97;5057527;28;46120;-80
2023/07/06 02:53:23;;;;;;;;;3.75;3.75;;;;;18.52;58.91;101019.84;5058718;28;45730;-81
2023/07/06 02:55:49;;;;;;;;;5.00;4.25;;;;;18.52;58.85;101017.19;5058003;28;45804;-80
2023/07/06 02:58:15;;;;;;;;;4.75;4.00;;;;;18.49;58.81;101023.66;5056447;28;46262;-83
2023/07/06 03:00:41;;;;;;;;;6.00;4.00;;;;;18.46;59.20;101022.13;5058319;28;45621;-82
2023/07/06 03:03:08;;;;;;;;;5.00;5.00;;;;;18.45;59.11;101025.78;5058584;28;45832;-80
2023/07/06 03:05:36;;;;;;;;;4.00;4.00;;;;;18.46;59.10;101032.75;5056864;28;47492;-80
2023/07/06 03:08:03;;;;;;;;;2.00;1.00;;;;;18.45;58.89;101028.44;5059844;28;45626;-80
2023/07/06 03:10:30;;;;;;;;;6.25;4.00;;;;;18.42;59.53;101025.22;5058307;28;45622;-82
2023/07/06 03:12:57;;;;;;;;;4.00;3.25;;;;;18.42;58.83;101028.72;5059738;28;45535;-80
2023/07/06 03:15:23;;;;;;;;;4.25;4.25;;;;;18.40;58.72;101020.09;5060939;28;45521;-80
2023/07/06 03:17:50;;;;;;;;;4.00;3.00;;;;;18.39;59.05;101021.06;5061312;28;45622;-80
2023/07/06 03:23:37;;;;;;;;;4.50;4.50;;;;;18.37;59.00;101015.06;5060365;28;45563;-79
2023/07/06 03:26:03;;;;;;;;;3.50;3.00;;;;;18.39;58.88;101014.94;5058197;28;46411;-82
2023/07/06 03:28:29;;;;;;;;;6.00;5.00;;;;;18.38;59.34;101015.91;5057073;28;46226;-80
2023/07/06 03:30:58;;;;;;;;;4.00;4.00;;;;;18.38;58.85;101019.41;5057123;28;45728;-80
2023/07/06 03:33:24;;;;;;;;;4.50;4.00;;;;;18.38;59.36;101021.22;5058315;28;45648;-81
2023/07/06 03:35:58;;;;;;;;;9.00;4.00;;;;;18.37;59.34;101020.38;5057231;28;46758;-82
2023/07/06 03:38:25;;;;;;;;;5.75;5.00;;;;;18.37;59.08;101024.84;5058776;28;45633;-79
2023/07/06 03:40:52;;;;;;;;;6.75;6.25;;;;;18.33;58.95;101016.34;5059525;28;45564;-84
2023/07/06 03:43:19;;;;;;;;;5.00;5.00;;;;;18.37;59.44;101023.03;5058942;28;45425;-81
2023/07/06 03:45:48;;;;;;;;;5.00;5.00;;;;;18.36;59.46;101025.81;5057852;28;47644;-81
2023/07/06 03:48:16;;;;;;;;;6.00;5.75;;;;;18.39;59.50;101023.72;5057462;28;45616;-78
2023/07/06 03:54:06;;;;;;;;;13.00;12.00;;;;;18.39;59.27;101021.06;5059151;28;45623;-82
2023/07/06 03:56:32;;;;;;;;;18.75;17.50;;;;;18.36;59.84;101025.81;5058279;28;45565;-81
2023/07/06 03:58:59;;;;;;;;;18.50;15.00;;;;;18.34;59.58;101025.16;5057138;28;46316;-80
2023/07/06 04:01:31;;;;;;;;;24.00;19.75;;;;;18.34;59.61;101022.50;5056907;28;45546;-80
2023/07/06 04:03:57;;;;;;;;;15.25;14.75;;;;;18.28;60.13;101029.22;5057102;28;45531;-81
2023/07/06 04:06:24;;;;;;;;;15.25;13.50;;;;;18.26;60.19;101022.41;5057856;28;45705;-82
2023/07/06 04:08:50;;;;;;;;;14.75;14.25;;;;;18.22;59.76;101023.69;5057273;28;46313;-79
2023/07/06 04:11:15;;;;;;;;;16.50;13.50;;;;;18.20;60.06;101015.03;5056934;28;45695;-81
2023/07/06 04:13:40;;;;;;;;;16.75;14.00;;;;;18.20;59.71;101023.81;5057048;28;45977;-79
2023/07/06 04:16:14;;;;;;;;;11.25;9.75;;;;;18.23;59.92;101030.66;5057087;28;45694;-79
2023/07/06 04:18:39;;;;;;;;;13.50;12.00;;;;;18.21;60.08;101017.53;5056639;28;46193;-81
2023/07/06 04:24:31;;;;;;;;;12.00;10.50;;;;;18.22;59.66;101027.16;5058671;28;45577;-82
2023/07/06 04:26:59;;;;;;;;;8.25;8.00;;;;;18.21;59.73;101029.97;5057321;28;46446;-81
2023/07/06 04:29:26;;;;;;;;;8.00;7.75;;;;;18.23;60.21;101030.66;5056794;28;46008;-81
2023/07/06 04:31:55;;;;;;;;;11.50;7.25;;;;;18.19;59.71;101024.78;5057481;28;45761;-83
2023/07/06 04:34:21;;;;;;;;;9.75;8.00;;;;;18.22;59.57;101023.69;5058702;28;45683;-82
2023/07/06 04:36:47;;;;;;;;;9.25;8.00;;;;;18.24;59.65;101027.03;5058129;28;45790;-81
2023/07/06 04:39:12;;;;;;;;;9.50;9.00;;;;;18.23;59.91;101031.50;5056839;28;45910;-83
2023/07/06 04:41:38;;;;;;;;;7.00;6.25;;;;;18.25;60.03;101031.31;5055992;28;45631;-81
2023/07/06 04:44:04;;;;;;;;;7.00;6.75;;;;;18.26;59.87;101039.16;5055693;28;45644;-83
2023/07/06 04:46:29;;;;;;;;;7.00;6.00;;;;;18.26;59.74;101033.84;5054724;28;46595;-81
2023/07/06 04:48:55;;;;;;;;;6.50;6.50;;;;;18.28;59.66;101034.53;5053057;28;47163;-79
2023/07/06 04:54:42;;;;;;;;;7.75;7.25;;;;;18.29;59.93;101038.88;5054088;28;45673;-82
2023/07/06 04:57:13;;;;;;;;;6.75;6.75;;;;;18.30;59.81;101043.16;5054559;28;46764;-82
2023/07/06 04:59:40;;;;;;;;;6.00;6.00;;;;;18.31;59.89;101044.00;5056274;28;46052;-79
2023/07/06 05:02:06;;;;;;;;;10.75;7.00;;;;;18.26;60.29;101028.53;5054057;28;45684;-83
2023/07/06 05:04:31;;;;;;;;;7.25;6.25;;;;;18.30;60.50;101040.50;5068828;28;45633;-81
2023/07/06 05:06:57;;;;;;;;;7.50;6.25;;;;;18.27;60.63;101034.69;5053395;28;45601;-82
2023/07/06 05:09:24;;;;;;;;;8.00;7.00;;;;;18.29;60.32;101038.03;5053950;28;45693;-82
2023/07/06 05:11:52;;;;;;;;;7.00;7.00;;;;;18.31;60.45;101044.00;5056314;28;45730;-82
2023/07/06 05:14:17;;;;;;;;;6.00;6.00;;;;;18.30;60.64;101048.47;5052652;28;45529;-82
2023/07/06 05:16:43;;;;;;;;;8.75;8.00;;;;;18.28;60.71;101039.00;5053392;28;45526;-83
2023/07/06 05:19:08;;;;;;;;;7.25;6.00;;;;;18.28;60.69;101042.50;5053439;28;45567;-82
2023/07/06 05:24:55;;;;;;;;;0.50;0.00;;;;;18.24;60.57;101051.75;5053270;28;45675;-82
2023/07/06 05:27:20;;;;;;;;;7.00;7.00;;;;;18.23;60.85;101046.56;5053478;28;46155;-82
2023/07/06 05:29:46;;;;;;;;;8.50;7.75;;;;;18.24;60.84;101054.41;5053624;28;45498;-83
2023/07/06 05:32:11;;;;;;;;;9.25;8.00;;;;;18.21;61.14;101046.72;5053579;28;45709;-82
2023/07/06 05:34:36;;;;;;;;;7.00;6.25;;;;;18.23;60.39;101051.88;5053533;28;45560;-84
2023/07/06 05:40:24;;;;;;;;;8.00;7.00;;;;;18.24;60.37;101051.75;5053776;28;45855;-88
2023/07/06 05:42:49;;;;;;;;;8.50;7.25;;;;;18.30;61.18;101055.63;5056537;28;45604;-88
2023/07/06 05:45:15;;;;;;;;;9.25;8.25;;;;;18.30;60.53;101059.09;5055889;28;45663;-86
2023/07/06 05:47:40;;;;;;;;;8.75;7.00;;;;;18.29;61.06;101053.94;5054328;28;45797;-85
2023/07/06 05:50:06;;;;;;;;;7.00;6.00;;;;;18.26;60.73;101047.09;5054645;28;46093;-86
2023/07/06 05:52:32;;;;;;;;;8.25;7.50;;;;;18.28;60.72;101044.31;5055269;28;45595;-87
2023/07/06 05:54:57;;;;;;;;;8.00;7.50;;;;;18.32;61.12;101057.13;5054674;28;45723;-87
2023/07/06 05:57:22;;;;;;;;;10.00;9.00;;;;;18.28;60.77;101050.47;5054097;28;45560;-84
2023/07/06 05:59:48;;;;;;;;;9.25;7.25;;;;;18.33;60.90;101057.97;5069161;28;48367;-83
2023/07/06 06:02:19;;;;;;;;;7.75;7.50;;;;;18.34;61.11;101054.34;5052913;28;45577;-85
2023/07/06 06:04:46;;;;;;;;;9.50;7.00;;;;;18.34;60.65;101055.19;5054680;28;45898;-86
2023/07/06 06:10:34;;;;;;;;;9.00;8.00;;;;;18.41;60.94;101058.88;5074433;28;45302;-84
2023/07/06 06:12:59;;;;;;;;;6.75;6.75;;;;;18.41;60.34;101058.88;5080018;28;45641;-87
2023/07/06 06:15:27;;;;;;;;;8.50;6.25;;;;;18.48;60.23;101067.09;5058324;28;45681;-84
2023/07/06 06:17:52;;;;;;;;;8.25;8.00;;;;;18.50;60.72;101066.94;5058724;28;45453;-85
2023/07/06 06:20:19;;;;;;;;;8.75;8.00;;;;;18.54;60.55;101073.63;5060753;28;46287;-88
2023/07/06 06:26:06;;;;;;;;;10.00;9.25;;;;;18.57;60.25;101074.19;5060564;28;45504;-89
2023/07/06 06:28:31;;;;;;;;;11.50;9.00;;;;;18.57;60.27;101063.56;5058638;28;45630;-91
2023/07/06 06:30:57;;;;;;;;;10.00;8.75;;;;;18.59;59.76;101068.72;5058756;28;45794;-88
2023/07/06 06:33:22;;;;;;;;;13.25;10.00;;;;;18.66;60.42;101075.13;5074285;28;45528;-85
2023/07/06 06:35:48;;;;;;;;;10.25;8.75;;;;;18.67;59.70;101077.63;5058733;28;45545;-90
2023/07/06 06:38:14;;;;;;;;;7.25;7.25;;;;;18.70;59.40;101073.84;5059748;28;45686;-89
2023/07/06 06:40:39;;;;;;;;;9.75;9.00;;;;;18.71;59.84;101070.19;5059240;28;46248;-91
2023/07/06 06:43:05;;;;;;;;;9.00;8.75;;;;;18.73;59.84;101070.91;5057839;28;45774;-91
2023/07/06 06:45:31;;;;;;;;;8.50;7.75;;;;;18.83;59.80;101076.97;5073780;28;45749;-92
2023/07/06 06:47:57;;;;;;;;;9.50;9.25;;;;;18.88;59.44;101082.66;5055646;28;48698;-90
2023/07/06 06:50:23;;;;;;;;;6.75;6.00;;;;;18.92;59.62;101086.69;5057566;28;46058;-90
2023/07/06 06:56:10;;;;;;;;;8.75;8.50;;;;;19.03;59.18;101088.28;5059849;28;45463;-91
2023/07/06 06:58:37;;;;;;;;;8.75;7.25;;;;;19.04;58.79;101090.78;5074987;28;47969;-90
2023/07/06 07:01:05;;;;;;;;;7.25;7.00;;;;;19.08;59.25;101092.13;5074639;28;47259;-89
2023/07/06 07:03:31;;;;;;;;;10.75;9.00;;;;;19.13;59.06;101092.53;5057734;28;45875;-90
2023/07/06 07:12:23;;;;;;;;;5.00;4.00;;;;;19.21;58.39;101083.81;5055626;28;45934;-88
2023/07/06 07:14:48;;;;;;;;;7.25;6.00;;;;;19.26;57.78;101086.81;5062751;28;45580;-88
2023/07/06 07:17:14;;;;;;;;;5.75;5.25;;;;;19.32;57.95;101094.19;5060890;28;45648;-89
2023/07/06 07:19:40;;;;;;;;;6.00;4.25;;;;;19.35;57.81;101088.56;5060410;28;46277;-85
2023/07/06 07:22:06;;;;;;;;;7.00;7.00;;;;;19.38;57.55;101088.22;5059349;28;46359;-88
2023/07/06 07:24:32;;;;;;;;;8.00;6.25;;;;;19.44;57.40;101089.44;5060414;28;45503;-89
2023/07/06 07:26:58;;;;;;;;;6.50;6.00;;;;;19.41;57.67;101076.47;5061659;28;45781;-88
2023/07/06 07:29:24;;;;;;;;;8.50;6.25;;;;;19.48;57.45;101081.06;5074926;28;47448;-91
2023/07/06 07:31:51;;;;;;;;;8.00;5.50;;;;;19.53;56.76;101091.22;5058614;28;46054;-89
2023/07/06 07:34:18;;;;;;;;;4.75;4.75;;;;;19.52;56.75;101085.06;5058848;28;45711;-89
2023/07/06 07:36:44;;;;;;;;;5.25;5.00;;;;;19.56;56.80;101088.25;5062291;28;45780;-89
2023/07/06 07:39:11;;;;;;;;;6.50;6.00;;;;;19.59;56.73;101080.81;5077660;28;47520;-88
2023/07/06 07:41:36;;;;;;;;;5.00;4.50;;;;;19.57;56.26;101079.28;5059328;28;45792;-89
2023/07/06 07:44:02;;;;;;;;;6.00;5.00;;;;;19.64;56.14;101086.50;5060072;28;45594;-89
2023/07/06 07:46:29;;;;;;;;;7.00;5.25;;;;;19.66;56.33;101084.50;5060621;28;45510;-91
2023/07/06 07:48:55;;;;;;;;;6.00;5.50;;;;;19.70;56.38;101085.03;5058245;28;47536;-91
2023/07/06 07:51:23;;;;;;;;;6.00;5.25;;;;;19.74;55.93;101085.56;5059401;28;45582;-90
2023/07/06 07:57:13;;;;;;;;;7.25;6.25;;;;;19.80;56.25;101075.13;5065558;28;45647;-87
2023/07/06 07:59:39;;;;;;;;;5.75;5.50;;;;;19.78;56.16;101070.94;5081498;28;47623;-90
2023/07/06 08:02:05;;;;;;;;;5.00;4.00;;;;;19.83;55.63;101068.66;5065877;28;46145;-91
2023/07/06 08:04:31;;;;;;;;;6.50;5.50;;;;;19.87;55.58;101075.31;5080716;28;45712;-89
2023/07/06 08:06:56;;;;;;;;;5.00;5.00;;;;;19.94;55.78;101077.19;5062474;28;45636;-90
2023/07/06 08:09:23;;;;;;;;;5.50;4.25;;;;;19.96;55.35;101066.41;5064315;28;46354;-91
2023/07/06 08:11:48;;;;;;;;;7.75;6.00;;;;;19.99;55.16;101074.88;5063834;28;45698;-90
2023/07/06 08:14:33;;;;;;;;;6.00;5.25;;;;;20.05;55.32;101068.94;5061277;28;45712;-91
2023/07/06 08:16:59;;;;;;;;;6.00;5.75;;;;;20.07;54.99;101058.97;5058203;28;45667;-86
2023/07/06 08:19:24;;;;;;;;;5.00;4.00;;;;;20.12;54.84;101071.81;5060096;28;45594;-90
2023/07/06 08:21:50;;;;;;;;;5.00;4.75;;;;;20.16;54.98;101067.81;5078546;28;47239;-90
2023/07/06 08:24:15;;;;;;;;;5.75;5.25;;;;;20.17;54.51;101058.84;5065681;28;45534;-89
2023/07/06 08:26:40;;;;;;;;;7.00;6.50;;;;;20.24;54.81;101059.88;5062341;28;45610;-88
2023/07/06 08:29:06;;;;;;;;;5.00;5.00;;;;;20.28;54.25;101057.72;5060422;28;46322;-89
2023/07/06 08:31:32;;;;;;;;;6.50;5.25;;;;;20.28;53.93;101057.72;5059990;28;46263;-86
2023/07/06 08:34:00;;;;;;;;;7.00;6.00;;;;;20.31;54.21;101060.94;5057702;28;45721;-91
2023/07/06 08:36:27;;;;;;;;;7.50;5.50;;;;;20.35;54.27;101061.47;5059603;28;45671;-87
2023/07/06 08:42:18;;;;;;;;;4.75;4.25;;;;;20.43;53.75;101056.97;5057470;28;45788;-88
2023/07/06 08:44:50;;;;;;;;;3.00;3.00;;;;;20.45;53.70;101057.66;5058442;28;45652;-87
2023/07/06 08:47:17;;;;;;;;;5.00;4.00;;;;;20.48;52.95;101052.00;5057338;28;45784;-86
2023/07/06 08:49:46;;;;;;;;;3.50;3.00;;;;;20.51;52.64;101048.19;5057202;28;46592;-85
2023/07/06 08:52:14;;;;;;;;;4.75;3.75;;;;;20.51;52.95;101056.19;5058685;28;45747;-87
2023/07/06 08:54:41;;;;;;;;;5.50;4.00;;;;;20.56;52.83;101058.34;5058931;28;45972;-86
2023/07/06 08:57:18;;;;;;;;;4.50;4.00;;;;;20.58;52.28;101059.00;5061338;28;45578;-85
2023/07/06 08:59:46;;;;;;;;;3.75;2.75;;;;;20.61;52.59;101062.19;5061457;28;45818;-85
2023/07/06 09:02:28;;;;;;;;;4.00;3.75;;;;;20.67;52.46;101061.56;5061051;28;46432;-84
2023/07/06 09:04:56;;;;;;;;;0.00;0.00;;;;;20.73;52.30;101063.53;5058902;28;45507;-87
2023/07/06 09:07:34;;;;;;;;;3.50;3.50;;;;;20.77;51.25;101066.72;5056177;28;45706;-86
2023/07/06 09:10:00;;;;;;;;;4.75;4.00;;;;;20.79;51.74;101065.53;5056861;28;45715;-86
2023/07/06 09:12:32;;;;;;;;;5.75;4.00;;;;;20.79;51.74;101057.56;5055553;28;45906;-87
2023/07/06 09:15:00;;;;;;;;;4.00;3.00;;;;;20.85;51.71;101070.22;5055112;28;45798;-86
2023/07/06 09:17:27;;;;;;;;;5.50;4.25;;;;;20.85;51.58;101053.41;5054769;28;45680;-88
2023/07/06 09:19:53;;;;;;;;;5.25;3.50;;;;;20.93;51.74;101062.25;5070150;28;47514;-86
2023/07/06 09:28:44;;;;;;;;;5.25;4.25;;;;;21.05;51.39;101057.44;5056285;28;45649;-90
2023/07/06 09:31:19;;;;;;;;;7.00;4.50;;;;;21.09;50.86;101061.44;5060744;28;45495;-93
2023/07/06 09:33:49;;;;;;;;;6.00;5.00;;;;;21.15;50.62;101062.63;5058030;28;46340;-90
2023/07/06 09:36:25;;;;;;;;;4.00;4.00;;;;;21.17;50.65;101064.13;5056735;28;45643;-89
2023/07/06 09:38:51;;;;;;;;;3.50;3.50;;;;;21.23;50.42;101058.13;5055167;28;45625;-83
2023/07/06 09:41:22;;;;;;;;;2.75;2.75;;;;;21.29;49.69;101067.28;5057317;28;45679;-83
2023/07/06 09:43:52;;;;;;;;;4.50;4.50;;;;;21.33;50.18;101061.44;5072993;28;47367;-85
2023/07/06 09:46:18;;;;;;;;;5.75;5.00;;;;;21.39;48.88;101061.78;5057468;28;45611;-84
2023/07/06 09:48:44;;;;;;;;;5.50;4.25;;;;;21.40;49.36;101050.94;5058477;28;45778;-86
2023/07/06 09:51:18;;;;;;;;;3.25;3.00;;;;;21.44;49.44;101057.59;5058642;28;45819;-87
2023/07/06 09:53:48;;;;;;;;;4.00;3.75;;;;;21.48;49.62;101044.78;5074199;28;47266;-88
2023/07/06 09:56:14;;;;;;;;;4.25;3.50;;;;;21.53;49.11;101047.78;5060406;28;45464;-87
2023/07/06 09:58:41;;;;;;;;;5.00;4.00;;;;;21.61;49.65;101061.09;5060331;28;45468;-87
2023/07/06 10:01:31;;;;;;;;;5.00;4.75;;;;;21.71;48.60;101061.72;5062674;28;46651;-87
2023/07/06 10:04:24;;;;;;;;;4.00;4.00;;;;;21.77;49.17;101053.88;5061826;28;45516;-87
2023/07/06 10:07:27;;;;;;;;;4.25;3.50;;;;;21.82;48.89;101052.53;5061144;28;45708;-88
2023/07/06 10:09:59;;;;;;;;;4.00;3.75;;;;;21.92;49.29;101053.16;5037591;28;45835;-87
2023/07/06 10:12:33;;;;;;;;;5.00;4.00;;;;;22.00;48.72;101058.53;5036481;28;45878;-87
2023/07/06 10:15:08;;;;;;;;;3.25;3.00;;;;;22.05;48.54;101051.66;5036889;28;45987;-87
2023/07/06 10:17:37;;;;;;;;;3.75;3.50;;;;;22.08;48.42;101045.97;5036818;28;45824;-88
2023/07/06 10:20:25;;;;;;;;;5.75;4.00;;;;;22.14;47.93;101045.28;5021849;28;45687;-88
2023/07/06 10:26:33;;;;;;;;;3.00;3.00;;;;;22.28;46.97;101032.22;5036526;28;45873;-89
2023/07/06 10:29:05;;;;;;;;;4.00;3.00;;;;;22.33;47.41;101037.88;5038001;28;45633;-89
2023/07/06 10:31:55;;;;;;;;;4.00;4.00;;;;;22.42;47.36;101039.47;5038699;28;45813;-88
2023/07/06 10:34:38;;;;;;;;;3.25;3.25;;;;;22.44;46.15;101032.13;5037609;28;46449;-86
2023/07/06 10:37:05;;;;;;;;;3.50;3.50;;;;;22.54;46.76;101043.41;5035004;28;45943;-86
2023/07/06 10:43:14;;;;;;;;;4.50;4.50;;;;;22.68;45.98;101039.97;5036153;28;45818;-88
2023/07/06 10:45:41;;;;;;;;;2.75;2.25;;;;;22.74;46.24;101036.63;5036198;28;46616;-88
2023/07/06 10:48:13;;;;;;;;;6.00;5.50;;;;;22.79;45.68;101038.78;5056522;28;45634;-88
2023/07/06 10:50:51;;;;;;;;;3.00;2.50;;;;;22.83;45.38;101045.44;5057249;28;45679;-88
2023/07/06 10:53:25;;;;;;;;;4.00;3.75;;;;;22.83;43.73;101045.44;5072384;28;45552;-87
2023/07/06 10:56:06;;;;;;;;;3.75;3.75;;;;;22.83;43.96;101037.44;5058297;28;45608;-87
2023/07/06 10:58:36;;;;;;;;;3.50;3.50;;;;;22.82;43.86;101041.09;5057135;28;46130;-88
2023/07/06 11:01:10;;;;;;;;;2.00;2.00;;;;;22.80;43.52;101032.44;5058372;28;45708;-87
2023/07/06 11:03:36;;;;;;;;;4.00;3.00;;;;;22.82;44.08;101028.59;5072746;28;45746;-88
2023/07/06 11:06:06;;;;;;;;;3.50;2.25;;;;;22.91;43.09;101048.88;5055626;28;47530;-87
2023/07/06 11:09:14;;;;;;;;;4.00;3.25;;;;;22.94;43.75;101031.66;5056033;28;48438;-87
2023/07/06 11:12:03;;;;;;;;;3.75;3.00;;;;;22.94;43.37;101034.34;5034705;28;45732;-86
2023/07/06 11:14:31;;;;;;;;;3.25;2.75;;;;;22.95;43.38;101028.81;5035348;28;45682;-88
2023/07/06 11:17:14;;;;;;;;;3.25;3.00;;;;;22.90;42.48;101023.16;5034717;28;45773;-87
2023/07/06 11:19:49;;;;;;;;;5.00;4.00;;;;;22.94;43.07;101020.97;5034833;28;45896;-88
2023/07/06 11:22:18;;;;;;;;;3.00;3.00;;;;;22.93;43.32;101020.16;5035039;28;45774;-86
2023/07/06 11:24:48;;;;;;;;;3.75;3.00;;;;;22.95;42.47;101025.28;5017194;28;46137;-85
2023/07/06 11:27:24;;;;;;;;;4.00;3.00;;;;;22.97;41.92;101023.28;5033556;28;46456;-85
2023/07/06 11:29:53;;;;;;;;;4.75;4.00;;;;;22.99;41.73;101029.28;5033773;28;45913;-85
2023/07/06 11:32:32;;;;;;;;;3.25;2.00;;;;;22.96;41.57;101013.59;5033859;28;45729;-85
2023/07/06 11:35:26;;;;;;;;;3.00;3.00;;;;;23.00;41.06;101018.41;5033905;28;45915;-84
2023/07/06 11:38:29;;;;;;;;;4.00;3.00;;;;;23.01;41.34;101017.41;5016378;28;48683;-83
2023/07/06 11:41:13;;;;;;;;;4.75;3.00;;;;;23.05;41.47;101020.53;5033706;28;45930;-86
2023/07/06 11:44:36;;;;;;;;;3.00;3.00;;;;;23.09;40.79;101015.66;5055965;28;45671;-85
2023/07/06 11:47:15;;;;;;;;;3.50;3.50;;;;;23.15;41.10;101022.97;5033706;28;45771;-85
2023/07/06 11:49:59;;;;;;;;;4.50;2.75;;;;;23.19;41.44;101008.22;5033302;28;47229;-87
2023/07/06 11:52:30;;;;;;;;;3.00;3.00;;;;;23.22;41.02;101010.53;5051537;28;46333;-89
2023/07/06 11:58:42;;;;;;;;;4.00;3.00;;;;;23.23;40.84;101004.16;5055496;28;45547;-87
2023/07/06 12:01:20;;;;;;;;;3.75;3.75;;;;;23.29;40.82;101003.44;5055192;28;45786;-84
2023/07/06 12:03:47;;;;;;;;;4.00;3.00;;;;;23.34;40.84;101004.56;5055263;28;47258;-84
2023/07/06 12:06:17;;;;;;;;;3.00;3.00;;;;;23.40;40.57;100987.78;5070703;28;45656;-84
2023/07/06 12:08:44;;;;;;;;;2.00;2.00;;;;;23.47;40.71;100989.78;5054410;28;45660;-87
2023/07/06 12:15:12;;;;;;;;;3.00;3.00;;;;;23.61;40.59;100989.78;5051260;28;45531;-86
2023/07/06 12:17:38;;;;;;;;;3.00;3.00;;;;;23.69;40.40;100988.84;5055574;28;45743;-86
2023/07/06 12:20:10;;;;;;;;;3.00;2.00;;;;;23.79;38.87;100992.09;5055843;28;45546;-84
2023/07/06 12:22:50;;;;;;;;;2.50;2.50;;;;;23.84;38.36;100995.03;5053879;28;48552;-83
2023/07/06 12:25:23;;;;;;;;;4.00;3.00;;;;;23.86;38.27;100984.16;5055410;28;45704;-84
2023/07/06 12:27:48;;;;;;;;;2.25;1.75;;;;;23.87;39.39;100975.91;5057066;28;45717;-84
2023/07/06 12:30:15;;;;;;;;;3.00;3.00;;;;;23.95;38.52;100985.69;5059449;28;45788;-86
2023/07/06 12:32:44;;;;;;;;;3.50;3.00;;;;;23.99;38.53;100976.25;5058702;28;46647;-85
2023/07/06 12:35:13;;;;;;;;;4.00;3.00;;;;;24.03;38.54;100964.16;5056042;28;45878;-84
2023/07/06 12:37:41;;;;;;;;;2.50;2.50;;;;;24.04;38.56;100973.84;5070232;28;45604;-85
2023/07/06 12:40:22;;;;;;;;;4.00;3.00;;;;;24.17;38.32;100966.00;5054895;28;45523;-84
2023/07/06 12:42:48;;;;;;;;;4.25;4.00;;;;;24.24;37.60;100969.59;5054531;28;46767;-85
2023/07/06 12:45:18;;;;;;;;;5.00;4.00;;;;;24.30;38.23;100965.31;5054943;28;45768;-84
2023/07/06 12:47:44;;;;;;;;;3.00;3.00;;;;;24.39;37.79;100961.53;5054874;28;45649;-85
2023/07/06 12:50:26;;;;;;;;;4.00;3.00;;;;;24.46;37.74;100970.44;5055175;28;45569;-84
2023/07/06 12:53:01;;;;;;;;;4.25;4.00;;;;;24.54;37.75;100959.63;5053315;28;47199;-85
2023/07/06 12:55:31;;;;;;;;;3.00;2.00;;;;;24.59;37.47;100952.66;5054938;28;45921;-84
2023/07/06 12:57:57;;;;;;;;;4.00;3.50;;;;;24.63;37.92;100959.28;5070545;28;45707;-86
2023/07/06 13:00:25;;;;;;;;;3.00;3.00;;;;;24.67;37.94;100949.00;5056341;28;46029;-84
2023/07/06 13:02:58;;;;;;;;;4.00;3.00;;;;;24.72;37.86;100948.44;5056133;28;45762;-84
2023/07/06 13:05:29;;;;;;;;;3.50;3.00;;;;;24.73;37.77;100945.56;5054095;28;48300;-85
2023/07/06 13:07:55;;;;;;;;;3.50;3.00;;;;;24.77;36.99;100938.81;5055184;28;45767;-85
2023/07/06 13:10:25;;;;;;;;;3.00;3.00;;;;;24.80;37.12;100932.22;5054929;28;45543;-85